createdAt,value
2018-09-04T00:00:33.498Z,66.70
2018-09-04T00:03:02.168Z,67.00
2018-09-04T00:05:30.827Z,67.00
2018-09-04T00:07:59.510Z,67.00
2018-09-04T00:10:28.181Z,67.10
2018-09-04T00:12:56.877Z,67.10
2018-09-04T00:15:25.569Z,67.30
2018-09-04T00:17:54.216Z,67.40
2018-09-04T00:22:57.737Z,67.50
2018-09-04T00:25:26.413Z,67.60
2018-09-04T00:27:55.111Z,67.80
2018-09-04T00:30:23.789Z,67.80
2018-09-04T00:32:52.416Z,68.00
2018-09-04T00:35:21.106Z,68.00
2018-09-04T00:37:49.769Z,68.10
2018-09-04T00:40:18.445Z,67.90
2018-09-04T00:42:47.090Z,68.20
2018-09-04T00:45:15.771Z,68.10
2018-09-04T00:47:44.504Z,68.20
2018-09-04T00:50:13.172Z,68.30
2018-09-04T00:52:41.836Z,68.30
2018-09-04T00:55:10.563Z,68.60
2018-09-04T00:57:39.208Z,68.30
2018-09-04T01:00:07.915Z,68.50
2018-09-04T01:05:11.499Z,68.30
2018-09-04T01:07:40.173Z,68.50
2018-09-04T01:10:08.843Z,68.40
2018-09-04T01:12:37.516Z,68.50
2018-09-04T01:15:06.307Z,68.40
2018-09-04T01:17:34.978Z,68.40
2018-09-04T01:20:03.680Z,68.60
2018-09-04T01:22:32.348Z,68.50
2018-09-04T01:25:00.988Z,68.50
2018-09-04T01:27:29.664Z,68.40
2018-09-04T01:29:58.314Z,68.30
2018-09-04T01:32:26.984Z,68.30
2018-09-04T01:34:55.626Z,68.50
2018-09-04T01:37:24.281Z,68.40
2018-09-04T01:39:52.948Z,68.30
2018-09-04T01:42:21.616Z,68.40
2018-09-04T01:44:50.254Z,68.50
2018-09-04T01:47:18.933Z,68.60
2018-09-04T01:49:47.582Z,68.40
2018-09-04T01:52:16.395Z,68.50
2018-09-04T01:54:45.047Z,68.60
2018-09-04T01:57:13.880Z,68.50
2018-09-04T01:59:42.527Z,68.60
2018-09-04T02:02:11.189Z,68.80
2018-09-04T02:04:39.845Z,68.90
2018-09-04T02:07:08.521Z,68.90
2018-09-04T02:09:37.179Z,69.00
2018-09-04T02:12:05.863Z,69.00
2018-09-04T02:14:34.490Z,69.10
2018-09-04T02:17:03.205Z,69.00
2018-09-04T02:19:32.364Z,69.00
2018-09-04T02:22:01.093Z,69.00
2018-09-04T02:24:29.765Z,69.00
2018-09-04T02:26:58.424Z,68.80
2018-09-04T02:29:27.055Z,69.50
2018-09-04T02:31:55.700Z,68.80
2018-09-04T02:34:24.359Z,69.00
2018-09-04T02:36:53.124Z,68.80
2018-09-04T02:39:21.782Z,69.30
2018-09-04T02:41:50.476Z,69.40
2018-09-04T02:44:19.154Z,69.50
2018-09-04T02:46:47.811Z,69.60
2018-09-04T02:49:16.459Z,69.60
2018-09-04T02:51:45.120Z,69.70
2018-09-04T02:54:13.842Z,69.70
2018-09-04T02:56:42.476Z,69.50
2018-09-04T02:59:11.153Z,69.60
2018-09-04T03:01:39.805Z,69.60
2018-09-04T03:04:08.577Z,69.70
2018-09-04T03:06:37.238Z,69.70
2018-09-04T03:09:06.576Z,69.80
2018-09-04T03:11:35.324Z,69.90
2018-09-04T03:14:04.002Z,69.90
2018-09-04T03:16:32.636Z,70.00
2018-09-04T03:19:01.288Z,70.00
2018-09-04T03:21:29.928Z,70.30
2018-09-04T03:23:58.598Z,70.30
2018-09-04T03:26:27.259Z,70.40
2018-09-04T03:28:55.918Z,70.40
2018-09-04T03:31:24.569Z,70.50
2018-09-04T03:33:53.218Z,71.20
2018-09-04T03:36:21.864Z,70.50
2018-09-04T03:38:50.508Z,70.40
2018-09-04T03:41:19.149Z,70.50
2018-09-04T03:43:47.820Z,70.60
2018-09-04T03:46:16.511Z,71.00
2018-09-04T03:48:45.173Z,70.80
2018-09-04T03:51:13.826Z,70.80
2018-09-04T03:53:42.668Z,70.80
2018-09-04T03:56:11.323Z,70.80
2018-09-04T03:58:40.048Z,71.00
2018-09-04T04:01:08.667Z,71.10
2018-09-04T04:03:37.632Z,71.10
2018-09-04T04:06:06.357Z,71.20
2018-09-04T04:08:35.147Z,71.20
2018-09-04T04:11:03.839Z,71.30
2018-09-04T04:13:32.545Z,71.30
2018-09-04T04:16:01.255Z,71.40
2018-09-04T04:18:29.954Z,71.50
2018-09-04T04:20:59.477Z,71.50
2018-09-04T04:23:28.907Z,71.70
2018-09-04T04:25:59.057Z,71.50
2018-09-04T04:28:27.726Z,71.80
2018-09-04T04:30:56.385Z,71.90
2018-09-04T04:33:25.033Z,71.90
2018-09-04T04:35:53.699Z,72.10
2018-09-04T04:38:22.443Z,72.00
2018-09-04T04:40:51.079Z,71.90
2018-09-04T04:43:19.750Z,72.20
2018-09-04T04:45:48.413Z,72.30
2018-09-04T04:48:17.131Z,72.50
2018-09-04T04:50:45.780Z,72.50
2018-09-04T04:53:14.564Z,72.50
2018-09-04T04:55:43.220Z,72.50
2018-09-04T04:58:11.929Z,72.30
2018-09-04T05:00:40.693Z,72.60
2018-09-04T05:03:09.376Z,72.60
2018-09-04T05:05:38.016Z,72.80
2018-09-04T05:08:06.675Z,72.70
2018-09-04T05:10:35.360Z,72.80
2018-09-04T05:13:04.164Z,72.90
2018-09-04T05:15:32.835Z,72.80
2018-09-04T05:18:01.488Z,72.80
2018-09-04T05:20:30.317Z,72.80
2018-09-04T05:22:59.084Z,72.80
2018-09-04T05:25:27.751Z,72.90
2018-09-04T05:27:56.512Z,72.90
2018-09-04T05:30:25.163Z,73.10
2018-09-04T05:33:00.104Z,72.90
2018-09-04T05:35:32.830Z,73.10
2018-09-04T05:38:01.463Z,73.10
2018-09-04T05:40:30.239Z,73.10
2018-09-04T05:43:01.117Z,73.10
2018-09-04T05:45:30.907Z,73.20
2018-09-04T05:48:05.759Z,73.30
2018-09-04T05:50:34.407Z,73.50
2018-09-04T05:53:03.050Z,73.50
2018-09-04T05:55:31.762Z,73.50
2018-09-04T05:58:00.636Z,73.30
2018-09-04T06:00:32.505Z,73.60
2018-09-04T06:03:01.292Z,73.60
2018-09-04T06:05:30.006Z,73.50
2018-09-04T06:07:58.651Z,73.80
2018-09-04T06:10:27.320Z,73.50
2018-09-04T06:12:55.984Z,73.60
2018-09-04T06:15:24.740Z,73.60
2018-09-04T06:17:53.425Z,73.90
2018-09-04T06:20:22.105Z,73.90
2018-09-04T06:22:50.807Z,73.70
2018-09-04T06:25:19.449Z,73.60
2018-09-04T06:27:48.205Z,73.70
2018-09-04T06:30:16.859Z,73.40
2018-09-04T06:32:45.495Z,73.40
2018-09-04T06:35:14.225Z,73.40
2018-09-04T06:37:42.851Z,73.40
2018-09-04T06:40:11.537Z,73.50
2018-09-04T06:42:40.353Z,73.50
2018-09-04T06:45:09.148Z,73.30
2018-09-04T06:47:37.870Z,73.40
2018-09-04T06:50:06.534Z,73.50
2018-09-04T06:52:35.184Z,73.50
2018-09-04T06:55:03.902Z,73.60
2018-09-04T06:57:32.537Z,73.40
2018-09-04T07:00:01.160Z,73.30
2018-09-04T07:02:29.828Z,73.20
2018-09-04T07:04:58.497Z,73.40
2018-09-04T07:07:27.175Z,73.60
2018-09-04T07:09:55.812Z,73.50
2018-09-04T07:12:24.495Z,73.50
2018-09-04T07:14:53.192Z,73.30
2018-09-04T07:17:21.868Z,73.20
2018-09-04T07:19:50.565Z,73.40
2018-09-04T07:22:19.212Z,73.30
2018-09-04T07:24:47.862Z,73.40
2018-09-04T07:27:16.516Z,73.30
2018-09-04T07:29:45.160Z,73.10
2018-09-04T07:32:13.800Z,73.00
2018-09-04T07:34:42.476Z,73.40
2018-09-04T07:37:11.332Z,73.30
2018-09-04T07:39:40.041Z,73.10
2018-09-04T07:42:08.733Z,73.10
2018-09-04T07:44:37.416Z,72.90
2018-09-04T07:47:06.752Z,72.70
2018-09-04T07:49:35.482Z,72.90
2018-09-04T07:52:04.164Z,72.70
2018-09-04T07:54:32.808Z,72.80
2018-09-04T07:57:01.576Z,72.70
2018-09-04T07:59:30.240Z,72.50
2018-09-04T08:01:58.867Z,72.30
2018-09-04T08:04:27.552Z,72.70
2018-09-04T08:06:56.241Z,72.30
2018-09-04T08:09:24.932Z,72.10
2018-09-04T08:11:53.635Z,71.70
2018-09-04T08:14:22.292Z,71.80
2018-09-04T08:16:50.943Z,71.40
2018-09-04T08:19:19.617Z,71.90
2018-09-04T08:21:48.265Z,71.40
2018-09-04T08:24:16.920Z,71.50
2018-09-04T08:26:45.645Z,71.70
2018-09-04T08:29:14.353Z,71.20
2018-09-04T08:31:42.995Z,70.50
2018-09-04T08:34:11.645Z,70.10
2018-09-04T08:36:40.348Z,69.90
2018-09-04T08:39:09.123Z,70.50
2018-09-04T08:41:37.842Z,69.20
2018-09-04T08:44:06.476Z,69.50
2018-09-04T08:46:35.336Z,69.50
2018-09-04T08:49:03.978Z,69.50
2018-09-04T08:51:32.813Z,69.40
2018-09-04T08:54:01.454Z,69.40
2018-09-04T08:56:30.116Z,68.90
2018-09-04T08:58:58.800Z,68.90
2018-09-04T09:01:27.557Z,68.80
2018-09-04T09:03:56.190Z,68.70
2018-09-04T09:06:24.944Z,67.20
2018-09-04T09:08:53.600Z,67.70
2018-09-04T09:11:22.243Z,68.00
2018-09-04T09:13:50.890Z,67.90
2018-09-04T09:16:19.564Z,67.70
2018-09-04T09:18:48.206Z,67.10
2018-09-04T09:21:16.933Z,66.20
2018-09-04T09:23:45.598Z,65.20
2018-09-04T09:26:14.257Z,65.10
2018-09-04T09:28:42.912Z,64.70
2018-09-04T09:31:11.589Z,63.30
2018-09-04T09:33:40.351Z,63.60
2018-09-04T09:36:09.016Z,63.30
2018-09-04T09:38:37.676Z,61.40
2018-09-04T09:41:06.340Z,59.80
2018-09-04T09:43:35.031Z,59.60
2018-09-04T09:46:03.775Z,58.70
2018-09-04T09:48:37.767Z,58.10
2018-09-04T09:51:06.556Z,56.90
2018-09-04T09:53:35.436Z,56.60
2018-09-04T09:56:03.866Z,55.00
2018-09-04T09:58:32.511Z,55.10
2018-09-04T10:01:06.427Z,54.50
2018-09-04T10:03:40.520Z,53.70
2018-09-04T10:06:09.189Z,52.70
2018-09-04T10:08:37.893Z,52.30
2018-09-04T10:11:06.757Z,52.30
2018-09-04T10:13:35.471Z,51.00
2018-09-04T10:16:04.153Z,51.30
2018-09-04T10:18:32.819Z,50.80
2018-09-04T10:21:01.487Z,52.00
2018-09-04T10:23:30.141Z,51.00
2018-09-04T10:25:58.867Z,51.00
2018-09-04T10:28:27.695Z,48.30
2018-09-04T10:30:56.370Z,47.30
2018-09-04T10:33:25.007Z,46.60
2018-09-04T10:35:53.741Z,47.20
2018-09-04T10:38:25.017Z,46.80
2018-09-04T10:40:55.528Z,47.20
2018-09-04T10:43:27.969Z,47.00
2018-09-04T10:46:04.785Z,47.10
2018-09-04T10:48:33.457Z,46.00
2018-09-04T10:51:02.374Z,45.50
2018-09-04T10:53:31.043Z,43.80
2018-09-04T10:55:59.706Z,42.10
2018-09-04T10:58:28.374Z,42.80
2018-09-04T11:00:57.013Z,43.20
2018-09-04T11:03:25.717Z,40.90
2018-09-04T11:05:54.366Z,41.60
2018-09-04T11:08:23.047Z,42.20
2018-09-04T11:10:51.717Z,44.10
2018-09-04T11:13:20.390Z,44.80
2018-09-04T11:15:49.063Z,45.40
2018-09-04T11:18:17.706Z,44.80
2018-09-04T11:20:46.352Z,44.30
2018-09-04T11:23:15.008Z,43.80
2018-09-04T11:25:43.661Z,40.50
2018-09-04T11:28:12.387Z,40.70
2018-09-04T11:30:41.120Z,40.60
2018-09-04T11:33:09.779Z,41.10
2018-09-04T11:35:38.457Z,42.50
2018-09-04T11:38:07.129Z,43.30
2018-09-04T11:40:35.847Z,44.00
2018-09-04T11:43:04.473Z,44.40
2018-09-04T11:45:33.203Z,44.60
2018-09-04T11:48:01.876Z,45.20
2018-09-04T11:50:30.504Z,45.80
2018-09-04T11:52:59.184Z,46.20
2018-09-04T11:55:27.954Z,47.20
2018-09-04T11:57:56.616Z,47.50
2018-09-04T12:00:30.353Z,48.00
2018-09-04T12:02:59.048Z,48.20
2018-09-04T12:05:27.695Z,48.90
2018-09-04T12:07:56.407Z,48.60
2018-09-04T12:10:25.068Z,48.10
2018-09-04T12:12:53.833Z,48.80
2018-09-04T12:15:22.398Z,48.70
2018-09-04T12:17:51.108Z,48.40
2018-09-04T12:20:28.238Z,48.70
2018-09-04T12:22:57.072Z,48.60
2018-09-04T12:25:26.112Z,49.10
2018-09-04T12:27:54.786Z,48.80
2018-09-04T12:30:23.564Z,49.60
2018-09-04T12:32:52.416Z,48.80
2018-09-04T12:35:21.072Z,48.80
2018-09-04T12:37:49.718Z,49.00
2018-09-04T12:40:18.386Z,49.50
2018-09-04T12:42:47.060Z,50.20
2018-09-04T12:45:15.749Z,49.50
2018-09-04T12:47:44.426Z,49.50
2018-09-04T12:50:13.100Z,49.50
2018-09-04T12:52:41.762Z,49.50
2018-09-04T12:55:10.472Z,49.50
2018-09-04T12:57:39.159Z,49.70
2018-09-04T13:00:08.500Z,49.40
2018-09-04T13:02:37.214Z,49.40
2018-09-04T13:05:05.854Z,48.70
2018-09-04T13:07:34.629Z,48.50
2018-09-04T13:10:03.316Z,48.10
2018-09-04T13:12:32.079Z,47.40
2018-09-04T13:15:00.739Z,47.50
2018-09-04T13:17:29.388Z,48.30
2018-09-04T13:19:58.045Z,47.70
2018-09-04T13:22:26.785Z,48.30
2018-09-04T13:24:55.483Z,47.50
2018-09-04T13:27:24.151Z,47.30
2018-09-04T13:29:52.821Z,47.10
2018-09-04T13:32:21.505Z,47.70
2018-09-04T13:34:50.150Z,47.60
2018-09-04T13:37:18.807Z,47.60
2018-09-04T13:39:50.974Z,48.00
2018-09-04T13:42:19.635Z,48.30
2018-09-04T13:44:48.403Z,48.70
2018-09-04T13:47:17.173Z,49.40
2018-09-04T13:49:46.212Z,49.30
2018-09-04T13:52:14.607Z,49.60
2018-09-04T13:54:43.219Z,49.70
2018-09-04T13:57:12.721Z,49.60
2018-09-04T13:59:41.523Z,49.30
2018-09-04T14:02:10.479Z,49.50
2018-09-04T14:04:39.256Z,49.10
2018-09-04T14:07:08.092Z,49.10
2018-09-04T14:09:36.994Z,49.40
2018-09-04T14:12:05.985Z,49.20
2018-09-04T14:14:34.891Z,48.80
2018-09-04T14:17:39.182Z,48.60
2018-09-04T14:20:08.116Z,48.60
2018-09-04T14:22:36.971Z,48.80
2018-09-04T14:25:05.740Z,48.00
2018-09-04T14:27:34.854Z,48.30
2018-09-04T14:30:17.153Z,48.90
2018-09-04T14:32:32.911Z,48.80
2018-09-04T14:35:01.950Z,49.20
2018-09-04T14:37:30.652Z,49.20
2018-09-04T14:39:59.457Z,48.80
2018-09-04T14:42:28.306Z,48.30
2018-09-04T14:44:57.088Z,48.20
2018-09-04T14:47:25.855Z,48.40
2018-09-04T14:49:54.634Z,48.20
2018-09-04T14:52:23.366Z,48.80
2018-09-04T14:54:52.138Z,48.90
2018-09-04T14:57:20.953Z,48.40
2018-09-04T14:59:49.752Z,49.00
2018-09-04T15:02:18.435Z,48.60
2018-09-04T15:04:47.236Z,48.70
2018-09-04T15:07:16.058Z,49.00
2018-09-04T15:09:44.817Z,49.30
2018-09-04T15:12:13.629Z,49.30
2018-09-04T15:14:42.418Z,49.30
2018-09-04T15:17:11.255Z,49.20
2018-09-04T15:19:40.059Z,49.20
2018-09-04T15:22:08.953Z,49.20
2018-09-04T15:24:37.779Z,49.20
2018-09-04T15:27:06.689Z,49.00
2018-09-04T15:29:35.385Z,49.00
2018-09-04T15:32:04.724Z,49.10
2018-09-04T15:34:33.427Z,49.10
2018-09-04T15:37:02.322Z,49.10
2018-09-04T15:39:31.063Z,49.10
2018-09-04T15:42:00.090Z,49.00
2018-09-04T15:44:28.920Z,48.50
2018-09-04T15:46:57.655Z,48.00
2018-09-04T15:49:31.744Z,48.10
2018-09-04T15:52:00.399Z,47.90
2018-09-04T15:54:29.111Z,47.70
2018-09-04T15:56:57.919Z,48.00
2018-09-04T15:59:26.627Z,47.70
2018-09-04T16:01:55.368Z,47.60
2018-09-04T16:04:24.161Z,47.80
2018-09-04T16:06:53.027Z,47.40
2018-09-04T16:09:21.878Z,47.60
2018-09-04T16:11:50.591Z,47.40
2018-09-04T16:14:19.387Z,47.00
2018-09-04T16:16:48.103Z,47.40
2018-09-04T16:19:16.997Z,46.90
2018-09-04T16:21:45.771Z,46.20
2018-09-04T16:24:14.530Z,46.80
2018-09-04T16:26:43.267Z,46.90
2018-09-04T16:29:11.983Z,47.60
2018-09-04T16:31:40.768Z,47.10
2018-09-04T16:34:10.014Z,46.70
2018-09-04T16:36:38.808Z,46.70
2018-09-04T16:39:07.591Z,46.90
2018-09-04T16:41:36.579Z,47.60
2018-09-04T16:44:08.579Z,46.40
2018-09-04T16:46:37.402Z,46.80
2018-09-04T16:49:06.226Z,46.70
2018-09-04T16:51:34.957Z,46.90
2018-09-04T16:54:03.750Z,46.70
2018-09-04T16:56:32.510Z,47.40
2018-09-04T16:59:01.297Z,47.80
2018-09-04T17:01:30.051Z,47.70
2018-09-04T17:03:58.858Z,47.30
2018-09-04T17:06:27.647Z,47.40
2018-09-04T17:08:56.431Z,47.00
2018-09-04T17:11:25.163Z,47.00
2018-09-04T17:13:53.931Z,47.70
2018-09-04T17:16:22.662Z,46.90
2018-09-04T17:18:51.623Z,46.80
2018-09-04T17:21:20.373Z,47.30
2018-09-04T17:23:49.110Z,47.30
2018-09-04T17:26:17.893Z,47.00
2018-09-04T17:28:46.635Z,47.00
2018-09-04T17:31:15.499Z,46.60
2018-09-04T17:33:44.263Z,46.90
2018-09-04T17:36:13.047Z,46.50
2018-09-04T17:38:41.759Z,47.50
2018-09-04T17:41:11.091Z,47.10
2018-09-04T17:43:39.811Z,46.90
2018-09-04T17:46:08.507Z,47.10
2018-09-04T17:48:37.394Z,47.00
2018-09-04T17:51:06.330Z,47.10
2018-09-04T17:53:35.051Z,47.00
2018-09-04T17:56:03.935Z,47.10
2018-09-04T17:58:32.960Z,47.30
2018-09-04T18:01:01.849Z,47.60
2018-09-04T18:03:30.573Z,47.80
2018-09-04T18:05:59.387Z,48.00
2018-09-04T18:08:28.129Z,48.00
2018-09-04T18:10:56.961Z,48.20
2018-09-04T18:13:25.701Z,48.50
2018-09-04T18:15:54.401Z,48.70
2018-09-04T18:18:23.126Z,49.20
2018-09-04T18:20:51.917Z,49.70
2018-09-04T18:23:20.733Z,50.00
2018-09-04T18:25:49.767Z,50.30
2018-09-04T18:28:18.523Z,50.90
2018-09-04T18:30:47.261Z,51.00
2018-09-04T18:33:16.997Z,51.50
2018-09-04T18:35:45.767Z,51.90
2018-09-04T18:38:14.503Z,52.50
2018-09-04T18:40:43.242Z,52.70
2018-09-04T18:43:11.974Z,53.60
2018-09-04T18:45:46.877Z,53.90
2018-09-04T18:48:15.798Z,54.40
2018-09-04T18:50:44.546Z,54.80
2018-09-04T18:53:14.386Z,55.20
2018-09-04T18:55:43.079Z,55.60
2018-09-04T18:58:12.216Z,56.00
2018-09-04T19:00:41.222Z,56.30
2018-09-04T19:03:10.030Z,56.80
2018-09-04T19:05:38.986Z,57.00
2018-09-04T19:08:07.730Z,57.40
2018-09-04T19:10:36.446Z,57.60
2018-09-04T19:13:05.282Z,57.90
2018-09-04T19:15:34.301Z,58.30
2018-09-04T19:18:03.028Z,58.70
2018-09-04T19:20:31.754Z,58.80
2018-09-04T19:23:00.503Z,59.40
2018-09-04T19:25:29.239Z,59.70
2018-09-04T19:27:58.077Z,60.10
2018-09-04T19:30:26.832Z,60.40
2018-09-04T19:32:55.639Z,60.60
2018-09-04T19:35:24.321Z,60.90
2018-09-04T19:37:53.014Z,61.10
2018-09-04T19:40:21.766Z,61.70
2018-09-04T19:42:50.521Z,62.30
2018-09-04T19:45:19.259Z,62.40
2018-09-04T19:47:48.011Z,62.50
2018-09-04T19:50:16.777Z,62.80
2018-09-04T19:52:45.550Z,63.00
2018-09-04T19:55:14.317Z,63.00
2018-09-04T19:57:43.053Z,63.30
2018-09-04T20:00:11.989Z,63.40
2018-09-04T20:02:40.735Z,63.70
2018-09-04T20:05:09.919Z,63.80
2018-09-04T20:07:38.804Z,64.60
2018-09-04T20:10:07.694Z,64.00
2018-09-04T20:12:36.417Z,64.30
2018-09-04T20:15:05.192Z,64.20
2018-09-04T20:17:33.899Z,64.30
2018-09-04T20:20:02.693Z,64.60
2018-09-04T20:22:31.393Z,64.80
2018-09-04T20:25:00.175Z,64.90
2018-09-04T20:27:28.873Z,65.10
2018-09-04T20:29:57.655Z,65.20
2018-09-04T20:32:26.466Z,65.30
2018-09-04T20:35:18.863Z,65.50
2018-09-04T20:37:51.496Z,65.60
2018-09-04T20:40:20.233Z,66.00
2018-09-04T20:42:48.946Z,66.10
2018-09-04T20:45:17.745Z,66.20
2018-09-04T20:47:46.496Z,66.50
2018-09-04T20:50:15.214Z,66.50
2018-09-04T20:52:43.919Z,66.70
2018-09-04T20:55:12.670Z,67.10
2018-09-04T20:57:41.538Z,67.30
2018-09-04T21:00:24.072Z,67.30
2018-09-04T21:03:04.194Z,67.30
2018-09-04T21:05:44.348Z,67.50
2018-09-04T21:08:20.890Z,67.50
2018-09-04T21:10:51.012Z,67.60
2018-09-04T21:13:19.775Z,67.70
2018-09-04T21:15:48.584Z,67.80
2018-09-04T21:18:17.354Z,67.70
2018-09-04T21:20:46.124Z,67.80
2018-09-04T21:23:14.827Z,68.10
2018-09-04T21:25:43.566Z,68.30
2018-09-04T21:28:12.324Z,68.50
2018-09-04T21:30:41.080Z,68.60
2018-09-04T21:33:09.832Z,68.70
2018-09-04T21:35:38.554Z,68.80
2018-09-04T21:38:07.274Z,69.10
2018-09-04T21:40:36.031Z,69.30
2018-09-04T21:43:04.856Z,69.50
2018-09-04T21:45:33.585Z,70.10
2018-09-04T21:48:02.298Z,69.50
2018-09-04T21:50:31.037Z,69.50
2018-09-04T21:52:59.770Z,69.90
2018-09-04T21:55:28.510Z,69.90
2018-09-04T21:57:57.352Z,70.40
2018-09-04T22:00:27.343Z,70.50
2018-09-04T22:02:57.385Z,70.60
2018-09-04T22:05:26.720Z,70.60
2018-09-04T22:07:56.835Z,70.90
2018-09-04T22:10:26.617Z,70.90
2018-09-04T22:12:55.537Z,71.80
2018-09-04T22:15:24.686Z,71.10
2018-09-04T22:17:53.445Z,71.30
2018-09-04T22:20:22.167Z,71.70
2018-09-04T22:22:50.896Z,71.90
2018-09-04T22:25:19.631Z,72.10
2018-09-04T22:27:48.333Z,72.30
2018-09-04T22:30:17.082Z,72.40
2018-09-04T22:32:45.830Z,72.50
2018-09-04T22:35:14.618Z,72.30
2018-09-04T22:37:43.338Z,72.50
2018-09-04T22:40:12.091Z,72.80
2018-09-04T22:42:41.240Z,72.90
2018-09-04T22:45:10.330Z,72.80
2018-09-04T22:47:40.947Z,73.70
2018-09-04T22:50:15.388Z,73.40
2018-09-04T22:52:44.090Z,73.50
2018-09-04T22:55:13.748Z,73.70
2018-09-04T22:57:43.292Z,73.80
2018-09-04T23:00:13.136Z,74.10
2018-09-04T23:02:41.879Z,74.30
2018-09-04T23:05:10.728Z,74.50
2018-09-04T23:07:39.458Z,74.60
2018-09-04T23:10:08.342Z,74.80
2018-09-04T23:12:37.040Z,74.90
2018-09-04T23:15:05.832Z,74.80
2018-09-04T23:17:34.534Z,74.90
2018-09-04T23:20:03.295Z,74.80
2018-09-04T23:22:32.005Z,75.20
2018-09-04T23:25:00.762Z,75.00
2018-09-04T23:27:29.492Z,75.20
2018-09-04T23:29:58.191Z,75.20
2018-09-04T23:32:27.023Z,75.10
2018-09-04T23:34:55.747Z,75.20
2018-09-04T23:37:24.480Z,75.40
2018-09-04T23:39:53.279Z,75.60
2018-09-04T23:42:22.009Z,75.60
2018-09-04T23:44:50.721Z,75.80
2018-09-04T23:47:19.457Z,75.80
2018-09-04T23:49:48.181Z,76.20
2018-09-04T23:52:16.987Z,76.20
2018-09-04T23:54:45.721Z,76.20
2018-09-04T23:57:14.453Z,76.20
2018-09-04T23:59:43.187Z,76.10
